createdAt,value
2019-04-05T00:01:09.749Z,26.17
2019-04-05T00:03:38.132Z,28.17
2019-04-05T00:06:07.010Z,32.10
2019-04-05T00:08:35.400Z,34.77
2019-04-05T00:11:03.885Z,23.10
2019-04-05T00:13:34.135Z,21.67
2019-04-05T00:16:02.670Z,22.43
2019-04-05T00:18:31.044Z,25.90
2019-04-05T00:20:59.545Z,22.93
2019-04-05T00:23:27.938Z,19.10
2019-04-05T00:25:59.318Z,20.80
2019-04-05T00:28:27.696Z,19.10
2019-04-05T00:30:56.045Z,19.73
2019-04-05T00:33:24.526Z,18.43
2019-04-05T00:35:52.973Z,24.27
2019-04-05T00:38:21.321Z,19.87
2019-04-05T00:40:49.766Z,18.77
2019-04-05T00:43:18.114Z,18.07
2019-04-05T00:45:46.661Z,18.93
2019-04-05T00:48:14.999Z,16.73
2019-04-05T00:50:43.546Z,20.93
2019-04-05T00:53:11.961Z,17.93
2019-04-05T00:55:40.776Z,18.50
2019-04-05T00:58:09.192Z,16.00
2019-04-05T01:00:37.571Z,17.60
2019-04-05T01:03:05.983Z,18.50
2019-04-05T01:05:34.427Z,15.03
2019-04-05T01:08:03.399Z,15.97
2019-04-05T01:10:31.930Z,16.20
2019-04-05T01:13:00.279Z,16.70
2019-04-05T01:15:40.351Z,15.97
2019-04-05T01:17:59.226Z,16.33
2019-04-05T01:20:30.800Z,15.33
2019-04-05T01:23:00.716Z,19.07
2019-04-05T01:25:29.172Z,20.27
2019-04-05T01:27:57.692Z,27.27
2019-04-05T01:30:26.251Z,30.10
2019-04-05T01:32:54.669Z,24.93
2019-04-05T01:35:23.122Z,27.17
2019-04-05T01:37:52.111Z,25.20
2019-04-05T01:40:20.844Z,25.40
2019-04-05T01:42:49.339Z,27.03
2019-04-05T01:45:17.723Z,26.60
2019-04-05T01:47:46.181Z,25.73
2019-04-05T01:50:14.737Z,38.53
2019-04-05T01:52:43.210Z,42.70
2019-04-05T01:55:11.637Z,26.17
2019-04-05T01:57:40.084Z,36.50
2019-04-05T02:00:11.693Z,34.73
2019-04-05T02:02:40.320Z,64.07
2019-04-05T02:05:09.203Z,28.27
2019-04-05T02:07:38.022Z,29.43
2019-04-05T02:10:08.492Z,30.63
2019-04-05T02:12:37.310Z,46.07
2019-04-05T02:15:06.489Z,28.53
2019-04-05T02:17:36.111Z,27.97
2019-04-05T02:20:07.749Z,23.97
2019-04-05T02:22:36.195Z,25.13
2019-04-05T02:25:07.049Z,19.90
2019-04-05T02:27:35.497Z,20.53
2019-04-05T02:30:05.590Z,20.60
2019-04-05T02:32:34.046Z,36.93
2019-04-05T02:35:02.547Z,27.63
2019-04-05T02:37:30.988Z,21.90
2019-04-05T02:39:59.405Z,22.77
2019-04-05T02:42:28.523Z,25.43
2019-04-05T02:44:56.947Z,20.43
2019-04-05T02:47:25.495Z,24.17
2019-04-05T02:49:55.315Z,23.10
2019-04-05T02:52:23.961Z,22.10
2019-04-05T02:54:52.585Z,22.37
2019-04-05T02:57:21.026Z,21.30
2019-04-05T02:59:49.546Z,21.97
2019-04-05T03:02:17.997Z,30.57
2019-04-05T03:04:46.422Z,28.63
2019-04-05T03:07:14.972Z,34.17
2019-04-05T03:09:43.884Z,25.87
2019-04-05T03:12:12.332Z,23.00
2019-04-05T03:14:40.759Z,29.93
2019-04-05T03:17:09.900Z,28.67
2019-04-05T03:19:38.914Z,25.07
2019-04-05T03:22:09.605Z,28.30
2019-04-05T03:24:39.764Z,29.97
2019-04-05T03:27:10.176Z,38.83
2019-04-05T03:29:38.594Z,35.67
2019-04-05T03:32:07.039Z,32.37
2019-04-05T03:34:36.265Z,31.33
2019-04-05T03:37:05.036Z,31.07
2019-04-05T03:39:34.253Z,32.67
2019-04-05T03:42:03.343Z,35.37
2019-04-05T03:44:32.060Z,32.33
2019-04-05T03:47:00.473Z,31.33
2019-04-05T03:49:30.123Z,37.43
2019-04-05T03:51:58.614Z,40.07
2019-04-05T03:54:27.059Z,45.00
2019-04-05T03:56:55.573Z,35.90
2019-04-05T03:59:24.314Z,43.70
2019-04-05T04:01:52.964Z,39.53
2019-04-05T04:04:21.380Z,45.83
2019-04-05T04:06:49.995Z,33.43
2019-04-05T04:09:18.710Z,38.27
2019-04-05T04:11:47.310Z,45.97
2019-04-05T04:14:15.770Z,47.40
2019-04-05T04:16:44.473Z,46.37
2019-04-05T04:19:13.554Z,50.47
2019-04-05T04:21:48.127Z,61.07
2019-04-05T04:24:16.577Z,55.23
2019-04-05T04:26:44.985Z,54.93
2019-04-05T04:29:13.945Z,45.77
2019-04-05T04:31:42.362Z,50.10
2019-04-05T04:34:11.360Z,71.70
2019-04-05T04:36:39.781Z,51.00
2019-04-05T04:39:08.297Z,45.63
2019-04-05T04:41:36.727Z,40.47
2019-04-05T04:44:05.465Z,43.13
2019-04-05T04:46:34.079Z,39.33
2019-04-05T04:49:02.535Z,41.60
2019-04-05T04:51:31.392Z,43.90
2019-04-05T04:54:00.042Z,58.33
2019-04-05T04:56:28.471Z,101.33
2019-04-05T04:58:56.930Z,33.03
2019-04-05T05:01:25.748Z,33.57
2019-04-05T05:03:56.170Z,79.80
2019-04-05T05:06:24.621Z,110.37
2019-04-05T05:08:53.068Z,71.63
2019-04-05T05:11:21.587Z,27.43
2019-04-05T05:13:50.503Z,36.33
2019-04-05T05:16:19.652Z,59.83
2019-04-05T05:18:48.408Z,118.77
2019-04-05T05:21:16.867Z,65.73
2019-04-05T05:23:45.513Z,85.17
2019-04-05T05:26:14.135Z,79.10
2019-04-05T05:28:42.561Z,30.47
2019-04-05T05:31:11.156Z,88.37
2019-04-05T05:33:39.759Z,214.90
2019-04-05T05:36:10.453Z,36.20
2019-04-05T05:38:38.538Z,56.67
2019-04-05T05:41:07.075Z,197.50
2019-04-05T05:43:35.500Z,115.03
2019-04-05T05:46:03.956Z,47.17
2019-04-05T05:48:32.467Z,36.13
2019-04-05T05:51:01.226Z,159.37
2019-04-05T05:53:29.580Z,60.47
2019-04-05T05:55:57.967Z,160.20
2019-04-05T05:58:26.527Z,55.87
2019-04-05T06:00:55.052Z,22.40
2019-04-05T06:03:23.479Z,61.77
2019-04-05T06:08:21.948Z,52.27
2019-04-05T06:10:50.329Z,69.90
2019-04-05T06:13:18.750Z,27.33
2019-04-05T06:15:47.201Z,48.93
2019-04-05T06:18:15.627Z,50.43
2019-04-05T06:20:44.082Z,46.20
2019-04-05T06:23:12.436Z,28.37
2019-04-05T06:25:40.808Z,101.93
2019-04-05T06:28:09.156Z,29.57
2019-04-05T06:30:37.541Z,61.10
2019-04-05T06:33:05.897Z,94.57
2019-04-05T06:35:34.305Z,58.87
2019-04-05T06:38:02.646Z,52.17
2019-04-05T06:40:40.847Z,96.80
2019-04-05T06:43:01.107Z,46.60
2019-04-05T06:45:29.460Z,45.83
2019-04-05T06:47:57.844Z,69.67
2019-04-05T06:50:26.199Z,34.37
2019-04-05T06:52:54.584Z,51.47
2019-04-05T06:55:23.010Z,32.60
2019-04-05T06:57:51.393Z,34.30
2019-04-05T07:00:23.085Z,34.23
2019-04-05T07:02:51.467Z,43.10
2019-04-05T07:05:21.087Z,44.83
2019-04-05T07:07:49.634Z,60.87
2019-04-05T07:10:17.990Z,113.73
2019-04-05T07:12:46.430Z,41.87
2019-04-05T07:15:14.874Z,28.80
2019-04-05T07:17:43.405Z,34.47
2019-04-05T07:20:11.962Z,32.73
2019-04-05T07:22:40.411Z,29.70
2019-04-05T07:25:08.899Z,31.03
2019-04-05T07:27:37.284Z,30.57
2019-04-05T07:30:07.775Z,30.67
2019-04-05T07:32:36.159Z,30.67
2019-04-05T07:35:05.745Z,29.97
2019-04-05T07:37:34.191Z,29.23
2019-04-05T07:40:02.546Z,31.77
2019-04-05T07:42:30.994Z,31.27
2019-04-05T07:44:59.350Z,32.00
2019-04-05T07:47:27.727Z,28.67
2019-04-05T07:49:56.074Z,33.57
2019-04-05T07:52:24.453Z,29.23
2019-04-05T07:54:53.247Z,32.07
2019-04-05T07:57:21.626Z,31.27
2019-04-05T07:59:50.051Z,33.97
2019-04-05T08:02:18.438Z,36.47
2019-04-05T08:04:46.853Z,32.90
2019-04-05T08:07:15.772Z,34.83
2019-04-05T08:09:44.690Z,37.77
2019-04-05T08:12:13.504Z,38.07
2019-04-05T08:14:42.555Z,37.80
2019-04-05T08:17:10.967Z,37.73
2019-04-05T08:19:39.340Z,42.10
2019-04-05T08:22:07.760Z,33.70
2019-04-05T08:24:36.278Z,29.40
2019-04-05T08:27:04.769Z,32.23
2019-04-05T08:29:33.159Z,33.97
2019-04-05T08:32:13.645Z,37.07
2019-04-05T08:34:31.606Z,33.67
2019-04-05T08:37:00.023Z,33.30
2019-04-05T08:39:28.475Z,32.53
2019-04-05T08:41:56.821Z,32.83
2019-04-05T08:44:25.269Z,34.23
2019-04-05T08:46:53.684Z,31.80
2019-04-05T08:49:22.066Z,30.47
2019-04-05T08:51:50.568Z,29.07
2019-04-05T08:54:31.590Z,32.57
2019-04-05T08:56:49.088Z,34.07
2019-04-05T08:59:17.468Z,32.27
2019-04-05T09:01:45.817Z,33.67
2019-04-05T09:04:14.279Z,25.57
2019-04-05T09:06:42.618Z,28.73
2019-04-05T09:09:11.000Z,29.77
2019-04-05T09:11:39.360Z,31.60
2019-04-05T09:14:07.743Z,30.07
2019-04-05T09:16:36.087Z,29.80
2019-04-05T09:19:04.603Z,27.33
2019-04-05T09:21:32.953Z,30.30
2019-04-05T09:24:01.574Z,26.40
2019-04-05T09:26:29.926Z,27.73
2019-04-05T09:28:58.375Z,28.60
2019-04-05T09:31:26.720Z,28.10
2019-04-05T09:33:55.099Z,28.97
2019-04-05T09:36:23.456Z,28.90
2019-04-05T09:38:51.835Z,28.07
2019-04-05T09:41:20.254Z,29.80
2019-04-05T09:43:48.600Z,28.53
2019-04-05T09:46:16.990Z,27.37
2019-04-05T09:48:45.731Z,28.43
2019-04-05T09:51:14.113Z,29.07
2019-04-05T09:53:42.529Z,28.63
2019-04-05T09:56:10.913Z,30.03
2019-04-05T09:58:39.346Z,29.90
2019-04-05T10:01:07.725Z,29.27
2019-04-05T10:03:36.071Z,28.13
2019-04-05T10:06:04.686Z,27.20
2019-04-05T10:08:33.105Z,28.97
2019-04-05T10:11:01.755Z,31.23
2019-04-05T10:13:30.104Z,23.53
2019-04-05T10:15:58.566Z,23.13
2019-04-05T10:18:26.907Z,25.27
2019-04-05T10:20:55.298Z,24.20
2019-04-05T10:23:23.636Z,22.33
2019-04-05T10:25:52.089Z,24.27
2019-04-05T10:28:20.441Z,19.73
2019-04-05T10:30:51.737Z,21.37
2019-04-05T10:33:19.209Z,23.60
2019-04-05T10:35:47.661Z,20.47
2019-04-05T10:38:15.987Z,23.47
2019-04-05T10:40:44.609Z,20.97
2019-04-05T10:43:13.025Z,20.77
2019-04-05T10:45:41.410Z,26.00
2019-04-05T10:48:09.833Z,21.97
2019-04-05T10:50:38.284Z,23.30
2019-04-05T10:53:06.639Z,20.97
2019-04-05T10:55:35.023Z,22.60
2019-04-05T10:58:03.642Z,22.07
2019-04-05T11:00:32.161Z,21.53
2019-04-05T11:03:00.590Z,23.87
2019-04-05T11:05:29.063Z,21.33
2019-04-05T11:07:57.416Z,21.30
2019-04-05T11:10:25.768Z,21.83
2019-04-05T11:12:54.225Z,20.00
2019-04-05T11:15:22.644Z,21.77
2019-04-05T11:17:51.029Z,20.70
2019-04-05T11:20:21.770Z,22.27
2019-04-05T11:22:50.909Z,23.60
2019-04-05T11:25:20.941Z,21.03
2019-04-05T11:27:49.525Z,20.43
2019-04-05T11:30:21.050Z,20.33
2019-04-05T11:32:49.509Z,18.30
2019-04-05T11:35:17.861Z,20.20
2019-04-05T11:37:49.931Z,18.00
2019-04-05T11:40:16.468Z,18.23
2019-04-05T11:42:46.396Z,17.30
2019-04-05T11:45:16.290Z,18.73
2019-04-05T11:47:44.741Z,17.60
2019-04-05T11:50:14.783Z,20.87
2019-04-05T11:52:43.242Z,17.33
2019-04-05T11:55:11.730Z,17.40
2019-04-05T11:57:41.483Z,16.83
2019-04-05T12:00:25.118Z,17.33
2019-04-05T12:02:55.210Z,17.20
2019-04-05T12:05:26.972Z,15.97
2019-04-05T12:07:58.468Z,15.40
2019-04-05T12:10:23.858Z,13.30
2019-04-05T12:12:52.343Z,12.50
2019-04-05T12:15:20.793Z,14.30
2019-04-05T12:17:49.318Z,14.43
2019-04-05T12:20:17.842Z,12.60
2019-04-05T12:22:46.243Z,12.87
2019-04-05T12:25:14.763Z,12.40
2019-04-05T12:27:43.338Z,11.77
2019-04-05T12:30:13.539Z,12.70
2019-04-05T12:32:42.020Z,11.60
2019-04-05T12:35:10.539Z,12.27
2019-04-05T12:37:49.655Z,11.90
2019-04-05T12:40:10.139Z,11.67
2019-04-05T12:42:42.695Z,10.43
2019-04-05T12:45:09.944Z,9.00
2019-04-05T12:47:38.383Z,8.83
2019-04-05T12:50:08.368Z,8.33
2019-04-05T12:52:36.996Z,6.47
2019-04-05T12:55:07.193Z,7.77
2019-04-05T12:57:35.619Z,7.43
2019-04-05T13:00:13.649Z,6.60
2019-04-05T13:02:42.226Z,6.70
2019-04-05T13:05:11.023Z,5.73
2019-04-05T13:07:39.545Z,5.57
2019-04-05T13:10:08.096Z,6.03
2019-04-05T13:12:36.676Z,6.23
2019-04-05T13:15:13.783Z,6.47
2019-04-05T13:17:36.291Z,8.13
2019-04-05T13:20:06.694Z,6.47
2019-04-05T13:22:35.145Z,7.07
2019-04-05T13:25:06.049Z,6.87
2019-04-05T13:27:34.882Z,6.97
2019-04-05T13:30:04.541Z,7.73
2019-04-05T13:32:32.883Z,7.53
2019-04-05T13:35:01.395Z,7.47
2019-04-05T13:37:30.781Z,7.47
2019-04-05T13:40:00.189Z,7.37
2019-04-05T13:42:31.390Z,8.27
2019-04-05T13:45:00.266Z,8.87
2019-04-05T13:47:28.811Z,9.60
2019-04-05T13:49:57.426Z,9.37
2019-04-05T13:52:25.935Z,9.87
2019-04-05T13:54:54.470Z,9.70
2019-04-05T13:57:23.008Z,9.90
2019-04-05T13:59:51.366Z,10.00
2019-04-05T14:02:21.223Z,9.40
2019-04-05T14:04:53.587Z,9.70
2019-04-05T14:07:23.456Z,9.53
2019-04-05T14:09:50.762Z,8.57
2019-04-05T14:12:19.107Z,8.73
2019-04-05T14:14:50.984Z,8.53
2019-04-05T14:17:17.560Z,9.03
2019-04-05T14:19:46.776Z,9.27
2019-04-05T14:22:16.003Z,8.97
2019-04-05T14:24:44.383Z,8.83
2019-04-05T14:27:12.889Z,8.50
2019-04-05T14:29:41.509Z,9.17
2019-04-05T14:32:20.476Z,10.63
2019-04-05T14:34:40.530Z,10.93
2019-04-05T14:37:09.086Z,9.73
2019-04-05T14:39:37.604Z,10.20
2019-04-05T14:42:09.939Z,11.67
2019-04-05T14:44:36.518Z,10.63
2019-04-05T14:47:05.094Z,10.90
2019-04-05T14:49:33.740Z,10.40
2019-04-05T14:52:02.384Z,10.47
2019-04-05T14:54:30.929Z,9.47
2019-04-05T14:57:02.378Z,9.60
2019-04-05T14:59:32.594Z,10.27
2019-04-05T15:01:59.989Z,11.83
2019-04-05T15:04:28.524Z,11.70
2019-04-05T15:06:57.171Z,11.57
2019-04-05T15:09:25.843Z,11.70
2019-04-05T15:11:54.471Z,11.43
2019-04-05T15:14:23.147Z,11.40
2019-04-05T15:16:51.653Z,9.87
2019-04-05T15:19:20.203Z,10.50
2019-04-05T15:21:48.684Z,11.17
2019-04-05T15:24:17.226Z,11.03
2019-04-05T15:26:45.845Z,11.97
2019-04-05T15:29:14.173Z,10.67
2019-04-05T15:31:42.661Z,11.43
2019-04-05T15:34:10.987Z,11.57
2019-04-05T15:36:39.377Z,11.37
2019-04-05T15:39:09.141Z,11.93
2019-04-05T15:41:37.597Z,11.27
2019-04-05T15:44:05.956Z,13.07
2019-04-05T15:46:34.396Z,13.20
2019-04-05T15:49:02.755Z,12.53
2019-04-05T15:51:31.135Z,12.33
2019-04-05T15:54:01.515Z,11.77
2019-04-05T15:56:33.357Z,12.60
2019-04-05T15:59:03.488Z,11.77
2019-04-05T16:01:29.934Z,11.00
2019-04-05T16:03:58.372Z,11.33
2019-04-05T16:06:26.901Z,11.47
2019-04-05T16:08:55.315Z,13.27
2019-04-05T16:11:23.705Z,13.13
2019-04-05T16:13:52.126Z,12.37
2019-04-05T16:16:20.524Z,11.70
2019-04-05T16:18:48.873Z,12.23
2019-04-05T16:21:17.227Z,13.33
2019-04-05T16:23:45.620Z,11.13
2019-04-05T16:26:14.044Z,11.33
2019-04-05T16:28:42.422Z,10.67
2019-04-05T16:31:10.767Z,11.23
2019-04-05T16:33:39.151Z,11.40
2019-04-05T16:36:07.572Z,11.00
2019-04-05T16:38:36.023Z,11.17
2019-04-05T16:41:04.444Z,11.67
2019-04-05T16:43:32.825Z,10.87
2019-04-05T16:46:01.166Z,10.77
2019-04-05T16:48:29.555Z,12.37
2019-04-05T16:50:57.911Z,14.70
2019-04-05T16:53:26.293Z,12.50
2019-04-05T16:55:54.645Z,12.60
2019-04-05T16:58:23.032Z,14.67
2019-04-05T17:00:51.372Z,17.27
2019-04-05T17:03:19.832Z,13.90
2019-04-05T17:05:48.162Z,14.73
2019-04-05T17:08:16.537Z,15.10
2019-04-05T17:10:44.951Z,14.93
2019-04-05T17:13:13.339Z,17.60
2019-04-05T17:15:41.758Z,15.10
2019-04-05T17:18:10.135Z,15.47
2019-04-05T17:20:38.552Z,15.83
2019-04-05T17:23:07.006Z,17.90
2019-04-05T17:25:35.351Z,17.03
2019-04-05T17:28:03.877Z,17.20
2019-04-05T17:30:32.234Z,17.30
2019-04-05T17:33:00.580Z,15.93
2019-04-05T17:35:28.965Z,17.47
2019-04-05T17:37:57.319Z,18.43
2019-04-05T17:40:25.767Z,19.80
2019-04-05T17:42:54.113Z,22.37
2019-04-05T17:45:22.564Z,21.70
2019-04-05T17:47:50.914Z,21.70
2019-04-05T17:50:30.826Z,19.70
2019-04-05T17:53:11.221Z,19.53
2019-04-05T17:55:29.334Z,21.37
2019-04-05T17:57:58.750Z,25.37
2019-04-05T18:00:27.196Z,20.27
2019-04-05T18:02:55.625Z,20.97
2019-04-05T18:05:23.994Z,19.67
2019-04-05T18:07:52.430Z,18.67
2019-04-05T18:10:20.810Z,20.13
2019-04-05T18:12:49.394Z,19.70
2019-04-05T18:15:17.784Z,20.70
2019-04-05T18:17:46.130Z,24.13
2019-04-05T18:20:14.589Z,18.63
2019-04-05T18:22:42.934Z,21.57
2019-04-05T18:25:14.107Z,22.40
2019-04-05T18:27:41.464Z,19.60
2019-04-05T18:30:10.075Z,25.83
2019-04-05T18:32:38.490Z,21.43
2019-04-05T18:35:07.402Z,24.23
2019-04-05T18:37:35.822Z,25.67
2019-04-05T18:40:06.548Z,24.93
2019-04-05T18:42:34.894Z,24.70
2019-04-05T18:45:03.814Z,24.43
2019-04-05T18:47:32.163Z,25.50
2019-04-05T18:50:03.061Z,24.70
2019-04-05T18:52:31.221Z,26.03
2019-04-05T18:55:00.194Z,25.40
2019-04-05T18:57:28.541Z,23.10
2019-04-05T18:59:56.928Z,31.27
2019-04-05T19:02:25.331Z,24.20
2019-04-05T19:04:53.677Z,24.77
2019-04-05T19:07:22.437Z,25.83
2019-04-05T19:09:50.868Z,26.67
2019-04-05T19:12:19.256Z,26.33
2019-04-05T19:14:47.605Z,29.43
2019-04-05T19:17:23.753Z,25.13
2019-04-05T19:19:46.668Z,25.40
2019-04-05T19:22:15.018Z,26.00
2019-04-05T19:24:43.370Z,24.67
2019-04-05T19:27:11.819Z,29.00
2019-04-05T19:29:40.242Z,26.90
2019-04-05T19:49:39.241Z,29.50
2019-04-05T19:52:07.692Z,30.33
2019-04-05T19:54:39.490Z,31.90
2019-04-05T19:57:07.958Z,33.73
2019-04-05T19:59:36.309Z,28.60
2019-04-05T20:02:04.835Z,33.93
2019-04-05T20:04:33.258Z,30.53
2019-04-05T20:07:01.637Z,29.00
2019-04-05T20:09:30.008Z,29.60
2019-04-05T20:11:58.391Z,32.43
2019-04-05T20:14:26.740Z,30.97
2019-04-05T20:16:55.118Z,33.03
2019-04-05T20:19:23.469Z,32.30
2019-04-05T20:21:52.325Z,32.50
2019-04-05T20:24:20.684Z,33.90
2019-04-05T20:26:49.073Z,31.57
2019-04-05T20:29:18.209Z,47.27
2019-04-05T20:31:46.703Z,41.33
2019-04-05T20:34:15.063Z,38.00
2019-04-05T20:36:43.416Z,36.63
2019-04-05T20:39:11.799Z,33.60
2019-04-05T20:41:40.149Z,34.03
2019-04-05T20:44:10.330Z,35.50
2019-04-05T20:46:38.693Z,36.03
2019-04-05T20:49:07.075Z,37.83
2019-04-05T20:51:35.427Z,37.97
2019-04-05T20:54:03.880Z,38.93
2019-04-05T20:56:32.233Z,36.57
2019-04-05T20:59:00.773Z,35.77
2019-04-05T21:01:29.291Z,35.53
2019-04-05T21:03:57.932Z,37.43
2019-04-05T21:06:26.301Z,39.13
2019-04-05T21:08:54.681Z,34.90
2019-04-05T21:11:24.330Z,33.20
2019-04-05T21:13:53.989Z,35.67
2019-04-05T21:16:22.721Z,31.87
2019-04-05T21:18:51.382Z,36.43
2019-04-05T21:21:24.067Z,33.63
2019-04-05T21:23:53.476Z,34.40
2019-04-05T21:26:22.326Z,36.13
2019-04-05T21:28:50.772Z,34.17
2019-04-05T21:31:20.840Z,34.77
2019-04-05T21:33:49.236Z,34.67
2019-04-05T21:36:18.994Z,36.57
2019-04-05T21:38:47.384Z,38.70
2019-04-05T21:41:17.729Z,35.97
2019-04-05T21:43:46.192Z,40.27
2019-04-05T21:46:14.620Z,38.13
2019-04-05T21:48:43.063Z,36.07
2019-04-05T21:51:11.421Z,36.00
2019-04-05T21:53:39.807Z,34.40
2019-04-05T21:56:08.158Z,41.83
2019-04-05T21:58:36.877Z,35.33
2019-04-05T22:01:07.305Z,38.13
2019-04-05T22:03:35.920Z,38.17
2019-04-05T22:06:04.717Z,40.77
2019-04-05T22:08:34.639Z,40.80
2019-04-05T22:11:03.267Z,40.70
2019-04-05T22:13:31.890Z,40.47
2019-04-05T22:16:00.792Z,40.93
2019-04-05T22:18:30.040Z,40.73
2019-04-05T22:20:59.529Z,44.50
2019-04-05T22:23:31.132Z,44.67
2019-04-05T22:26:00.754Z,40.83
2019-04-05T22:28:30.042Z,43.57
2019-04-05T22:30:58.945Z,40.17
2019-04-05T22:33:28.433Z,44.27
2019-04-05T22:35:56.887Z,36.97
2019-04-05T22:38:27.079Z,39.37
2019-04-05T22:40:55.613Z,44.10
2019-04-05T22:43:24.027Z,43.00
2019-04-05T22:45:52.848Z,41.87
2019-04-05T22:48:21.813Z,43.43
2019-04-05T22:50:50.526Z,42.70
2019-04-05T22:53:19.083Z,44.70
2019-04-05T22:55:47.788Z,40.97
2019-04-05T22:58:17.974Z,40.73
2019-04-05T23:00:46.433Z,42.60
2019-04-05T23:03:14.857Z,39.83
2019-04-05T23:05:43.692Z,45.43
2019-04-05T23:08:12.366Z,39.13
2019-04-05T23:10:43.345Z,45.10
2019-04-05T23:13:11.993Z,36.77
2019-04-05T23:15:42.507Z,46.37
2019-04-05T23:18:11.111Z,42.90
2019-04-05T23:20:39.797Z,46.47
2019-04-05T23:23:09.993Z,46.13
2019-04-05T23:25:38.776Z,40.10
2019-04-05T23:28:07.446Z,38.80
2019-04-05T23:30:36.070Z,37.67
2019-04-05T23:33:04.494Z,39.80
2019-04-05T23:35:33.195Z,40.53
2019-04-05T23:38:01.719Z,42.07
2019-04-05T23:40:31.048Z,41.87
2019-04-05T23:42:59.942Z,47.57
2019-04-05T23:45:28.985Z,38.53
2019-04-05T23:47:57.404Z,51.17
2019-04-05T23:50:26.158Z,43.77
2019-04-05T23:52:54.474Z,46.37
2019-04-05T23:55:32.834Z,45.03
2019-04-05T23:57:53.199Z,40.93
